Terminal Aerodrome Forecast
Issued by NWS

Home | Current Version | Previous Version | Text Only | Print | Product List | Glossary On
Versions: 1 2 3 4 5 6 7 8 9 10 11 12 13 14 15 16 17 18 19 20 21 22 23 24 25 26 27 28 29 30 31 32
000
FTUS43 KGRR 210500
TAFMKG
TAF
KMKG 210540Z 2106/2206 00000KT P6SM SCT250
     FM210900 00000KT 4SM BR SCT035 BKN120
     FM211100 11003KT 2SM BR SCT050 SCT120
     FM211300 12003KT 4SM BR SCT150 BKN250
     FM211400 12004KT P6SM BKN040 BKN120
     FM211600 21004KT P6SM VCTS BKN035CB BKN120
     FM220300 14005KT 4SM TSRA BR OVC025CB=

USA.gov is the U.S. government's official web portal to all federal, state and local government web resources and services.